sensor_id;sensor_type;location;lat;lon;timestamp;P1;P2;P0
12542;PMS3003;6337;49.556;25.594;2023-06-14T00:00:05;12.23;8.10;
12542;PMS3003;6337;49.556;25.594;2023-06-14T00:02:34;11.80;8.67;
12542;PMS3003;6337;49.556;25.594;2023-06-14T00:05:01;13.40;7.73;
12542;PMS3003;6337;49.556;25.594;2023-06-14T00:07:36;12.10;8.87;
12542;PMS3003;6337;49.556;25.594;2023-06-14T00:10:07;10.83;7.93;
12542;PMS3003;6337;49.556;25.594;2023-06-14T00:12:35;23.47;8.53;
12542;PMS3003;6337;49.556;25.594;2023-06-14T00:15:05;9.33;7.97;
12542;PMS3003;6337;49.556;25.594;2023-06-14T00:17:34;13.10;7.90;
12542;PMS3003;6337;49.556;25.594;2023-06-14T00:20:04;14.97;8.00;
12542;PMS3003;6337;49.556;25.594;2023-06-14T00:22:34;18.10;9.40;
12542;PMS3003;6337;49.556;25.594;2023-06-14T00:25:04;12.23;8.97;
12542;PMS3003;6337;49.556;25.594;2023-06-14T00:27:32;15.57;8.90;
12542;PMS3003;6337;49.556;25.594;2023-06-14T00:30:03;14.07;8.93;
12542;PMS3003;6337;49.556;25.594;2023-06-14T00:32:31;13.80;10.20;
12542;PMS3003;6337;49.556;25.594;2023-06-14T00:34:58;9.73;8.73;
12542;PMS3003;6337;49.556;25.594;2023-06-14T00:37:27;17.40;8.53;
12542;PMS3003;6337;49.556;25.594;2023-06-14T00:39:54;10.43;9.40;
12542;PMS3003;6337;49.556;25.594;2023-06-14T00:42:25;13.60;9.20;
12542;PMS3003;6337;49.556;25.594;2023-06-14T00:44:54;11.13;8.87;
12542;PMS3003;6337;49.556;25.594;2023-06-14T00:47:25;13.10;8.60;
12542;PMS3003;6337;49.556;25.594;2023-06-14T00:49:53;9.40;8.40;
12542;PMS3003;6337;49.556;25.594;2023-06-14T00:52:22;12.03;9.97;
12542;PMS3003;6337;49.556;25.594;2023-06-14T00:54:49;28.27;10.20;
12542;PMS3003;6337;49.556;25.594;2023-06-14T00:57:17;11.70;9.03;
12542;PMS3003;6337;49.556;25.594;2023-06-14T00:59:44;13.70;8.97;
12542;PMS3003;6337;49.556;25.594;2023-06-14T01:02:14;10.47;9.33;
12542;PMS3003;6337;49.556;25.594;2023-06-14T01:04:44;14.93;9.90;
12542;PMS3003;6337;49.556;25.594;2023-06-14T01:07:15;12.40;8.30;
12542;PMS3003;6337;49.556;25.594;2023-06-14T01:09:52;10.83;8.73;
12542;PMS3003;6337;49.556;25.594;2023-06-14T01:12:29;14.20;9.17;
12542;PMS3003;6337;49.556;25.594;2023-06-14T01:15:00;11.77;9.73;
12542;PMS3003;6337;49.556;25.594;2023-06-14T01:17:29;15.13;10.40;
12542;PMS3003;6337;49.556;25.594;2023-06-14T01:20:00;18.93;8.60;
12542;PMS3003;6337;49.556;25.594;2023-06-14T01:22:28;13.20;9.00;
12542;PMS3003;6337;49.556;25.594;2023-06-14T01:24:57;13.60;9.73;
12542;PMS3003;6337;49.556;25.594;2023-06-14T01:27:25;14.07;10.30;
12542;PMS3003;6337;49.556;25.594;2023-06-14T01:29:55;20.47;10.83;
12542;PMS3003;6337;49.556;25.594;2023-06-14T01:32:25;12.67;9.10;
12542;PMS3003;6337;49.556;25.594;2023-06-14T01:34:54;10.70;8.60;
12542;PMS3003;6337;49.556;25.594;2023-06-14T01:37:21;9.70;8.23;
12542;PMS3003;6337;49.556;25.594;2023-06-14T01:39:49;11.57;8.87;
12542;PMS3003;6337;49.556;25.594;2023-06-14T01:42:19;10.80;9.20;
12542;PMS3003;6337;49.556;25.594;2023-06-14T01:44:48;9.93;8.87;
12542;PMS3003;6337;49.556;25.594;2023-06-14T01:47:16;12.17;9.40;
12542;PMS3003;6337;49.556;25.594;2023-06-14T01:49:43;14.60;7.90;
12542;PMS3003;6337;49.556;25.594;2023-06-14T01:52:12;11.30;10.10;
12542;PMS3003;6337;49.556;25.594;2023-06-14T01:54:40;11.50;8.20;
12542;PMS3003;6337;49.556;25.594;2023-06-14T01:57:07;9.47;8.33;
12542;PMS3003;6337;49.556;25.594;2023-06-14T01:59:37;13.90;9.17;
12542;PMS3003;6337;49.556;25.594;2023-06-14T02:02:05;14.00;8.50;
12542;PMS3003;6337;49.556;25.594;2023-06-14T02:04:33;10.07;7.90;
12542;PMS3003;6337;49.556;25.594;2023-06-14T02:07:00;18.30;7.83;
12542;PMS3003;6337;49.556;25.594;2023-06-14T02:09:27;13.03;9.27;
12542;PMS3003;6337;49.556;25.594;2023-06-14T02:11:55;11.67;9.50;
12542;PMS3003;6337;49.556;25.594;2023-06-14T02:14:24;10.20;8.80;
12542;PMS3003;6337;49.556;25.594;2023-06-14T02:16:53;13.47;8.60;
12542;PMS3003;6337;49.556;25.594;2023-06-14T02:19:20;11.73;9.07;
12542;PMS3003;6337;49.556;25.594;2023-06-14T02:21:47;11.23;8.60;
12542;PMS3003;6337;49.556;25.594;2023-06-14T02:24:16;13.50;8.97;
12542;PMS3003;6337;49.556;25.594;2023-06-14T02:26:44;12.70;8.90;
12542;PMS3003;6337;49.556;25.594;2023-06-14T02:29:11;13.07;9.30;
12542;PMS3003;6337;49.556;25.594;2023-06-14T02:31:40;15.93;8.30;
12542;PMS3003;6337;49.556;25.594;2023-06-14T02:34:09;13.27;9.00;
12542;PMS3003;6337;49.556;25.594;2023-06-14T02:36:37;10.87;7.97;
12542;PMS3003;6337;49.556;25.594;2023-06-14T02:39:07;11.30;8.40;
12542;PMS3003;6337;49.556;25.594;2023-06-14T02:41:35;9.63;8.40;
12542;PMS3003;6337;49.556;25.594;2023-06-14T02:44:04;11.80;8.13;
12542;PMS3003;6337;49.556;25.594;2023-06-14T02:46:31;14.10;8.17;
12542;PMS3003;6337;49.556;25.594;2023-06-14T02:48:59;9.33;7.77;
12542;PMS3003;6337;49.556;25.594;2023-06-14T02:51:29;10.47;7.00;
12542;PMS3003;6337;49.556;25.594;2023-06-14T02:53:56;12.57;9.37;
12542;PMS3003;6337;49.556;25.594;2023-06-14T02:56:24;10.60;9.30;
12542;PMS3003;6337;49.556;25.594;2023-06-14T02:58:51;11.90;8.33;
12542;PMS3003;6337;49.556;25.594;2023-06-14T03:01:18;10.13;7.93;
12542;PMS3003;6337;49.556;25.594;2023-06-14T03:03:46;9.93;8.27;
12542;PMS3003;6337;49.556;25.594;2023-06-14T03:06:13;8.87;7.57;
12542;PMS3003;6337;49.556;25.594;2023-06-14T03:08:43;17.63;9.00;
12542;PMS3003;6337;49.556;25.594;2023-06-14T03:11:11;9.57;7.53;
12542;PMS3003;6337;49.556;25.594;2023-06-14T03:13:38;15.53;9.10;
12542;PMS3003;6337;49.556;25.594;2023-06-14T03:16:06;16.20;8.27;
12542;PMS3003;6337;49.556;25.594;2023-06-14T03:18:34;12.77;9.30;
12542;PMS3003;6337;49.556;25.594;2023-06-14T03:21:01;10.53;8.30;
12542;PMS3003;6337;49.556;25.594;2023-06-14T03:23:30;12.70;8.43;
12542;PMS3003;6337;49.556;25.594;2023-06-14T03:25:59;10.43;6.83;
12542;PMS3003;6337;49.556;25.594;2023-06-14T03:28:27;11.70;8.40;
12542;PMS3003;6337;49.556;25.594;2023-06-14T03:30:54;10.83;8.23;
12542;PMS3003;6337;49.556;25.594;2023-06-14T03:33:22;18.30;9.67;
12542;PMS3003;6337;49.556;25.594;2023-06-14T03:35:50;13.80;9.43;
12542;PMS3003;6337;49.556;25.594;2023-06-14T03:38:18;9.87;7.40;
12542;PMS3003;6337;49.556;25.594;2023-06-14T03:40:46;11.87;8.20;
12542;PMS3003;6337;49.556;25.594;2023-06-14T03:43:15;11.30;8.27;
12542;PMS3003;6337;49.556;25.594;2023-06-14T03:45:42;13.03;8.10;
12542;PMS3003;6337;49.556;25.594;2023-06-14T03:48:10;10.97;8.00;
12542;PMS3003;6337;49.556;25.594;2023-06-14T03:50:38;9.07;7.80;
12542;PMS3003;6337;49.556;25.594;2023-06-14T03:53:07;13.27;7.87;
12542;PMS3003;6337;49.556;25.594;2023-06-14T03:55:35;9.80;7.57;
12542;PMS3003;6337;49.556;25.594;2023-06-14T03:58:03;10.03;7.90;
12542;PMS3003;6337;49.556;25.594;2023-06-14T04:00:32;10.80;8.43;
12542;PMS3003;6337;49.556;25.594;2023-06-14T04:03:01;8.30;7.40;
12542;PMS3003;6337;49.556;25.594;2023-06-14T04:05:30;9.50;7.43;
12542;PMS3003;6337;49.556;25.594;2023-06-14T04:07:57;10.90;8.17;
12542;PMS3003;6337;49.556;25.594;2023-06-14T04:10:26;10.70;8.80;
12542;PMS3003;6337;49.556;25.594;2023-06-14T04:12:54;8.53;7.17;
12542;PMS3003;6337;49.556;25.594;2023-06-14T04:15:21;14.27;8.50;
12542;PMS3003;6337;49.556;25.594;2023-06-14T04:17:50;10.87;7.10;
12542;PMS3003;6337;49.556;25.594;2023-06-14T04:20:22;9.37;6.90;
12542;PMS3003;6337;49.556;25.594;2023-06-14T04:22:50;11.00;7.73;
12542;PMS3003;6337;49.556;25.594;2023-06-14T04:25:19;11.13;7.80;
12542;PMS3003;6337;49.556;25.594;2023-06-14T04:27:48;11.37;8.50;
12542;PMS3003;6337;49.556;25.594;2023-06-14T04:30:17;9.37;6.60;
12542;PMS3003;6337;49.556;25.594;2023-06-14T04:32:46;17.47;8.10;
12542;PMS3003;6337;49.556;25.594;2023-06-14T04:35:16;15.63;8.90;
12542;PMS3003;6337;49.556;25.594;2023-06-14T04:37:43;10.83;7.90;
12542;PMS3003;6337;49.556;25.594;2023-06-14T04:40:11;20.23;8.50;
12542;PMS3003;6337;49.556;25.594;2023-06-14T04:42:39;12.50;7.70;
12542;PMS3003;6337;49.556;25.594;2023-06-14T04:45:10;14.00;7.10;
12542;PMS3003;6337;49.556;25.594;2023-06-14T04:47:38;23.13;8.80;
12542;PMS3003;6337;49.556;25.594;2023-06-14T04:50:05;9.17;6.73;
12542;PMS3003;6337;49.556;25.594;2023-06-14T04:52:35;9.93;7.83;
12542;PMS3003;6337;49.556;25.594;2023-06-14T04:55:02;15.20;6.60;
12542;PMS3003;6337;49.556;25.594;2023-06-14T04:57:30;10.17;6.40;
12542;PMS3003;6337;49.556;25.594;2023-06-14T04:59:58;10.50;7.37;
12542;PMS3003;6337;49.556;25.594;2023-06-14T05:02:32;14.30;7.67;
12542;PMS3003;6337;49.556;25.594;2023-06-14T05:05:00;12.23;7.60;
12542;PMS3003;6337;49.556;25.594;2023-06-14T05:07:28;14.83;6.80;
12542;PMS3003;6337;49.556;25.594;2023-06-14T05:09:57;11.33;7.20;
12542;PMS3003;6337;49.556;25.594;2023-06-14T05:12:25;13.77;7.13;
12542;PMS3003;6337;49.556;25.594;2023-06-14T05:14:54;9.27;7.30;
12542;PMS3003;6337;49.556;25.594;2023-06-14T05:17:23;10.43;7.47;
12542;PMS3003;6337;49.556;25.594;2023-06-14T05:19:53;11.97;7.93;
12542;PMS3003;6337;49.556;25.594;2023-06-14T05:22:20;12.87;8.07;
12542;PMS3003;6337;49.556;25.594;2023-06-14T05:24:48;8.53;7.17;
12542;PMS3003;6337;49.556;25.594;2023-06-14T05:27:17;10.10;7.80;
12542;PMS3003;6337;49.556;25.594;2023-06-14T05:29:45;11.10;7.30;
12542;PMS3003;6337;49.556;25.594;2023-06-14T05:32:13;13.47;8.43;
12542;PMS3003;6337;49.556;25.594;2023-06-14T05:34:40;10.93;6.73;
12542;PMS3003;6337;49.556;25.594;2023-06-14T05:37:08;10.37;7.17;
12542;PMS3003;6337;49.556;25.594;2023-06-14T05:39:36;8.57;7.43;
12542;PMS3003;6337;49.556;25.594;2023-06-14T05:42:05;19.23;10.43;
12542;PMS3003;6337;49.556;25.594;2023-06-14T05:44:34;16.43;8.27;
12542;PMS3003;6337;49.556;25.594;2023-06-14T05:47:02;9.20;6.37;
12542;PMS3003;6337;49.556;25.594;2023-06-14T05:49:29;17.60;9.20;
12542;PMS3003;6337;49.556;25.594;2023-06-14T05:51:57;11.00;8.20;
12542;PMS3003;6337;49.556;25.594;2023-06-14T05:54:25;9.63;7.67;
12542;PMS3003;6337;49.556;25.594;2023-06-14T05:56:53;17.47;7.97;
12542;PMS3003;6337;49.556;25.594;2023-06-14T05:59:20;15.83;9.60;
12542;PMS3003;6337;49.556;25.594;2023-06-14T06:01:49;17.00;10.20;
12542;PMS3003;6337;49.556;25.594;2023-06-14T06:04:16;9.37;7.60;
12542;PMS3003;6337;49.556;25.594;2023-06-14T06:06:45;12.27;9.00;
12542;PMS3003;6337;49.556;25.594;2023-06-14T06:09:13;13.30;9.73;
12542;PMS3003;6337;49.556;25.594;2023-06-14T06:11:41;13.20;10.00;
12542;PMS3003;6337;49.556;25.594;2023-06-14T06:14:08;12.17;8.87;
12542;PMS3003;6337;49.556;25.594;2023-06-14T06:16:37;17.40;9.60;
12542;PMS3003;6337;49.556;25.594;2023-06-14T06:19:07;14.20;9.93;
12542;PMS3003;6337;49.556;25.594;2023-06-14T06:21:34;10.30;8.57;
12542;PMS3003;6337;49.556;25.594;2023-06-14T06:24:02;10.57;8.10;
12542;PMS3003;6337;49.556;25.594;2023-06-14T06:26:31;14.27;8.77;
12542;PMS3003;6337;49.556;25.594;2023-06-14T06:28:59;9.40;7.50;
12542;PMS3003;6337;49.556;25.594;2023-06-14T06:31:26;16.63;9.50;
12542;PMS3003;6337;49.556;25.594;2023-06-14T06:33:55;12.97;9.17;
12542;PMS3003;6337;49.556;25.594;2023-06-14T06:36:25;14.60;8.63;
12542;PMS3003;6337;49.556;25.594;2023-06-14T06:38:53;14.23;8.20;
12542;PMS3003;6337;49.556;25.594;2023-06-14T06:41:20;11.13;8.17;
12542;PMS3003;6337;49.556;25.594;2023-06-14T06:43:47;14.33;9.37;
12542;PMS3003;6337;49.556;25.594;2023-06-14T06:46:17;11.03;9.20;
12542;PMS3003;6337;49.556;25.594;2023-06-14T06:48:45;18.30;9.40;
12542;PMS3003;6337;49.556;25.594;2023-06-14T06:51:12;21.63;8.53;
12542;PMS3003;6337;49.556;25.594;2023-06-14T06:53:42;10.43;8.13;
12542;PMS3003;6337;49.556;25.594;2023-06-14T06:56:18;13.83;8.53;
12542;PMS3003;6337;49.556;25.594;2023-06-14T06:58:48;10.43;7.93;
12542;PMS3003;6337;49.556;25.594;2023-06-14T07:01:17;10.77;8.30;
12542;PMS3003;6337;49.556;25.594;2023-06-14T07:03:45;8.10;6.87;
12542;PMS3003;6337;49.556;25.594;2023-06-14T07:06:13;9.60;8.13;
12542;PMS3003;6337;49.556;25.594;2023-06-14T07:08:43;9.47;6.57;
12542;PMS3003;6337;49.556;25.594;2023-06-14T07:11:11;10.90;6.90;
12542;PMS3003;6337;49.556;25.594;2023-06-14T07:13:39;12.40;7.67;
12542;PMS3003;6337;49.556;25.594;2023-06-14T07:16:06;9.43;6.90;
12542;PMS3003;6337;49.556;25.594;2023-06-14T07:18:34;20.20;8.00;
12542;PMS3003;6337;49.556;25.594;2023-06-14T07:21:02;9.40;7.53;
12542;PMS3003;6337;49.556;25.594;2023-06-14T07:23:29;12.10;8.33;
12542;PMS3003;6337;49.556;25.594;2023-06-14T07:25:58;11.90;8.87;
12542;PMS3003;6337;49.556;25.594;2023-06-14T07:28:25;14.13;9.40;
12542;PMS3003;6337;49.556;25.594;2023-06-14T07:30:53;11.40;8.93;
12542;PMS3003;6337;49.556;25.594;2023-06-14T07:33:21;11.13;7.87;
12542;PMS3003;6337;49.556;25.594;2023-06-14T07:35:48;10.27;8.00;
12542;PMS3003;6337;49.556;25.594;2023-06-14T07:41:23;9.43;8.47;
12542;PMS3003;6337;49.556;25.594;2023-06-14T07:44:09;13.20;8.57;
12542;PMS3003;6337;49.556;25.594;2023-06-14T07:46:37;12.83;8.83;
12542;PMS3003;6337;49.556;25.594;2023-06-14T07:49:05;15.20;8.17;
12542;PMS3003;6337;49.556;25.594;2023-06-14T07:51:33;13.13;9.60;
12542;PMS3003;6337;49.556;25.594;2023-06-14T07:54:00;13.07;7.93;
12542;PMS3003;6337;49.556;25.594;2023-06-14T07:56:30;9.30;7.10;
12542;PMS3003;6337;49.556;25.594;2023-06-14T07:58:57;9.80;8.43;
12542;PMS3003;6337;49.556;25.594;2023-06-14T08:01:25;8.80;7.90;
12542;PMS3003;6337;49.556;25.594;2023-06-14T08:03:56;16.97;8.27;
12542;PMS3003;6337;49.556;25.594;2023-06-14T08:06:24;9.87;7.87;
12542;PMS3003;6337;49.556;25.594;2023-06-14T08:08:52;10.03;7.83;
12542;PMS3003;6337;49.556;25.594;2023-06-14T08:11:19;17.40;7.00;
12542;PMS3003;6337;49.556;25.594;2023-06-14T08:13:48;13.97;9.27;
12542;PMS3003;6337;49.556;25.594;2023-06-14T08:16:15;9.33;7.73;
12542;PMS3003;6337;49.556;25.594;2023-06-14T08:18:42;10.10;8.27;
12542;PMS3003;6337;49.556;25.594;2023-06-14T08:21:10;7.90;6.43;
12542;PMS3003;6337;49.556;25.594;2023-06-14T08:23:39;9.90;7.27;
12542;PMS3003;6337;49.556;25.594;2023-06-14T08:26:08;10.70;7.90;
12542;PMS3003;6337;49.556;25.594;2023-06-14T08:28:35;13.40;8.17;
12542;PMS3003;6337;49.556;25.594;2023-06-14T08:31:05;8.47;7.67;
12542;PMS3003;6337;49.556;25.594;2023-06-14T08:33:35;7.23;6.50;
12542;PMS3003;6337;49.556;25.594;2023-06-14T08:36:02;8.83;8.00;
12542;PMS3003;6337;49.556;25.594;2023-06-14T08:38:30;7.23;6.50;
12542;PMS3003;6337;49.556;25.594;2023-06-14T08:40:58;10.10;6.70;
12542;PMS3003;6337;49.556;25.594;2023-06-14T08:43:25;12.80;7.37;
12542;PMS3003;6337;49.556;25.594;2023-06-14T08:45:53;13.00;7.00;
12542;PMS3003;6337;49.556;25.594;2023-06-14T08:48:26;8.73;7.10;
12542;PMS3003;6337;49.556;25.594;2023-06-14T08:50:54;6.77;6.07;
12542;PMS3003;6337;49.556;25.594;2023-06-14T08:53:26;9.03;6.50;
12542;PMS3003;6337;49.556;25.594;2023-06-14T08:55:57;19.93;9.43;
12542;PMS3003;6337;49.556;25.594;2023-06-14T08:58:26;9.00;7.10;
12542;PMS3003;6337;49.556;25.594;2023-06-14T09:00:56;8.10;7.30;
12542;PMS3003;6337;49.556;25.594;2023-06-14T09:03:25;14.07;8.67;
12542;PMS3003;6337;49.556;25.594;2023-06-14T09:05:54;13.63;7.07;
12542;PMS3003;6337;49.556;25.594;2023-06-14T09:08:24;11.30;7.27;
12542;PMS3003;6337;49.556;25.594;2023-06-14T09:10:52;8.50;7.40;
12542;PMS3003;6337;49.556;25.594;2023-06-14T09:13:21;8.33;6.47;
12542;PMS3003;6337;49.556;25.594;2023-06-14T09:15:49;6.10;5.07;
12542;PMS3003;6337;49.556;25.594;2023-06-14T09:18:18;11.57;8.07;
12542;PMS3003;6337;49.556;25.594;2023-06-14T09:20:48;9.13;7.00;
12542;PMS3003;6337;49.556;25.594;2023-06-14T09:23:19;8.73;6.90;
12542;PMS3003;6337;49.556;25.594;2023-06-14T09:25:48;8.90;6.50;
12542;PMS3003;6337;49.556;25.594;2023-06-14T09:28:17;8.13;7.13;
12542;PMS3003;6337;49.556;25.594;2023-06-14T09:30:45;7.53;6.70;
12542;PMS3003;6337;49.556;25.594;2023-06-14T09:33:16;8.07;6.73;
12542;PMS3003;6337;49.556;25.594;2023-06-14T09:35:45;13.20;7.33;
12542;PMS3003;6337;49.556;25.594;2023-06-14T09:38:14;8.43;6.83;
12542;PMS3003;6337;49.556;25.594;2023-06-14T09:40:42;6.43;5.80;
12542;PMS3003;6337;49.556;25.594;2023-06-14T09:43:09;13.50;7.10;
12542;PMS3003;6337;49.556;25.594;2023-06-14T09:45:36;9.90;6.57;
12542;PMS3003;6337;49.556;25.594;2023-06-14T09:48:07;9.20;6.07;
12542;PMS3003;6337;49.556;25.594;2023-06-14T09:50:34;10.93;6.57;
12542;PMS3003;6337;49.556;25.594;2023-06-14T09:53:03;11.20;7.03;
12542;PMS3003;6337;49.556;25.594;2023-06-14T09:55:40;9.50;7.50;
12542;PMS3003;6337;49.556;25.594;2023-06-14T09:58:08;8.23;6.97;
12542;PMS3003;6337;49.556;25.594;2023-06-14T10:00:38;10.57;9.00;
12542;PMS3003;6337;49.556;25.594;2023-06-14T10:03:10;10.90;7.47;
12542;PMS3003;6337;49.556;25.594;2023-06-14T10:05:39;8.30;7.50;
12542;PMS3003;6337;49.556;25.594;2023-06-14T10:08:13;10.17;8.73;
12542;PMS3003;6337;49.556;25.594;2023-06-14T10:10:44;6.57;5.97;
12542;PMS3003;6337;49.556;25.594;2023-06-14T10:13:12;8.00;7.20;
12542;PMS3003;6337;49.556;25.594;2023-06-14T10:15:41;13.17;7.80;
12542;PMS3003;6337;49.556;25.594;2023-06-14T10:18:14;11.07;8.07;
12542;PMS3003;6337;49.556;25.594;2023-06-14T10:20:48;11.63;8.00;
12542;PMS3003;6337;49.556;25.594;2023-06-14T10:23:21;9.10;8.20;
12542;PMS3003;6337;49.556;25.594;2023-06-14T10:25:51;7.63;6.90;
12542;PMS3003;6337;49.556;25.594;2023-06-14T10:28:25;9.53;7.40;
12542;PMS3003;6337;49.556;25.594;2023-06-14T10:31:02;9.20;8.30;
12542;PMS3003;6337;49.556;25.594;2023-06-14T10:33:32;9.20;8.30;
12542;PMS3003;6337;49.556;25.594;2023-06-14T10:38:59;13.13;8.83;
12542;PMS3003;6337;49.556;25.594;2023-06-14T10:41:31;11.07;8.87;
12542;PMS3003;6337;49.556;25.594;2023-06-14T10:47:09;15.23;10.10;
12542;PMS3003;6337;49.556;25.594;2023-06-14T10:49:41;27.03;9.53;
12542;PMS3003;6337;49.556;25.594;2023-06-14T10:52:10;13.83;9.50;
12542;PMS3003;6337;49.556;25.594;2023-06-14T10:55:06;14.50;10.90;
12542;PMS3003;6337;49.556;25.594;2023-06-14T10:57:40;11.93;10.60;
12542;PMS3003;6337;49.556;25.594;2023-06-14T11:00:08;12.57;10.00;
12542;PMS3003;6337;49.556;25.594;2023-06-14T11:02:50;12.97;10.83;
12542;PMS3003;6337;49.556;25.594;2023-06-14T11:05:23;16.00;11.13;
12542;PMS3003;6337;49.556;25.594;2023-06-14T11:08:17;14.23;11.13;
12542;PMS3003;6337;49.556;25.594;2023-06-14T11:11:05;14.90;10.20;
12542;PMS3003;6337;49.556;25.594;2023-06-14T11:13:34;16.27;12.00;
12542;PMS3003;6337;49.556;25.594;2023-06-14T11:16:10;16.10;10.77;
12542;PMS3003;6337;49.556;25.594;2023-06-14T11:18:38;14.33;9.90;
12542;PMS3003;6337;49.556;25.594;2023-06-14T11:21:05;12.27;9.80;
12542;PMS3003;6337;49.556;25.594;2023-06-14T11:23:33;15.03;10.40;
12542;PMS3003;6337;49.556;25.594;2023-06-14T11:26:01;14.03;9.37;
12542;PMS3003;6337;49.556;25.594;2023-06-14T11:28:38;12.13;10.50;
12542;PMS3003;6337;49.556;25.594;2023-06-14T11:31:06;14.63;10.70;
12542;PMS3003;6337;49.556;25.594;2023-06-14T11:33:34;13.40;10.30;
12542;PMS3003;6337;49.556;25.594;2023-06-14T11:36:02;15.37;10.23;
12542;PMS3003;6337;49.556;25.594;2023-06-14T11:38:30;18.13;10.17;
12542;PMS3003;6337;49.556;25.594;2023-06-14T11:41:01;11.27;10.07;
12542;PMS3003;6337;49.556;25.594;2023-06-14T11:49:22;14.73;9.90;
12542;PMS3003;6337;49.556;25.594;2023-06-14T11:51:52;12.27;9.93;
12542;PMS3003;6337;49.556;25.594;2023-06-14T11:54:20;12.27;9.20;
12542;PMS3003;6337;49.556;25.594;2023-06-14T11:56:47;16.47;10.93;
12542;PMS3003;6337;49.556;25.594;2023-06-14T11:59:18;11.90;9.43;
12542;PMS3003;6337;49.556;25.594;2023-06-14T12:01:45;10.93;9.80;
12542;PMS3003;6337;49.556;25.594;2023-06-14T12:04:13;16.27;10.13;
12542;PMS3003;6337;49.556;25.594;2023-06-14T12:06:41;12.30;9.27;
12542;PMS3003;6337;49.556;25.594;2023-06-14T12:09:09;12.00;10.20;
12542;PMS3003;6337;49.556;25.594;2023-06-14T12:11:38;10.87;8.93;
12542;PMS3003;6337;49.556;25.594;2023-06-14T12:14:05;16.53;8.83;
12542;PMS3003;6337;49.556;25.594;2023-06-14T12:16:37;13.13;10.00;
12542;PMS3003;6337;49.556;25.594;2023-06-14T12:19:09;14.80;8.77;
12542;PMS3003;6337;49.556;25.594;2023-06-14T12:21:40;11.77;7.93;
12542;PMS3003;6337;49.556;25.594;2023-06-14T12:24:09;11.23;7.73;
12542;PMS3003;6337;49.556;25.594;2023-06-14T12:26:38;11.20;7.67;
12542;PMS3003;6337;49.556;25.594;2023-06-14T12:29:06;21.10;8.50;
12542;PMS3003;6337;49.556;25.594;2023-06-14T12:31:37;9.67;7.57;
12542;PMS3003;6337;49.556;25.594;2023-06-14T12:34:04;7.77;7.10;
12542;PMS3003;6337;49.556;25.594;2023-06-14T12:36:35;15.73;8.63;
12542;PMS3003;6337;49.556;25.594;2023-06-14T12:39:06;11.80;7.93;
12542;PMS3003;6337;49.556;25.594;2023-06-14T12:41:34;10.10;8.03;
12542;PMS3003;6337;49.556;25.594;2023-06-14T12:44:02;19.37;8.20;
12542;PMS3003;6337;49.556;25.594;2023-06-14T12:46:30;14.00;9.20;
12542;PMS3003;6337;49.556;25.594;2023-06-14T12:49:01;14.90;9.23;
12542;PMS3003;6337;49.556;25.594;2023-06-14T12:51:30;8.90;8.10;
12542;PMS3003;6337;49.556;25.594;2023-06-14T12:53:58;9.77;8.77;
12542;PMS3003;6337;49.556;25.594;2023-06-14T12:56:26;11.60;8.10;
12542;PMS3003;6337;49.556;25.594;2023-06-14T12:58:53;9.00;6.80;
12542;PMS3003;6337;49.556;25.594;2023-06-14T13:01:20;8.77;7.90;
12542;PMS3003;6337;49.556;25.594;2023-06-14T13:03:48;12.37;7.50;
12542;PMS3003;6337;49.556;25.594;2023-06-14T13:06:20;6.40;5.60;
12542;PMS3003;6337;49.556;25.594;2023-06-14T13:08:49;6.73;5.87;
12542;PMS3003;6337;49.556;25.594;2023-06-14T13:11:19;9.00;5.43;
12542;PMS3003;6337;49.556;25.594;2023-06-14T13:13:47;11.57;5.33;
12542;PMS3003;6337;49.556;25.594;2023-06-14T13:16:14;11.53;5.33;
12542;PMS3003;6337;49.556;25.594;2023-06-14T13:18:42;7.33;6.57;
12542;PMS3003;6337;49.556;25.594;2023-06-14T13:21:10;8.43;6.90;
12542;PMS3003;6337;49.556;25.594;2023-06-14T13:23:38;10.20;5.40;
12542;PMS3003;6337;49.556;25.594;2023-06-14T13:26:06;6.17;5.57;
12542;PMS3003;6337;49.556;25.594;2023-06-14T13:28:33;7.53;5.10;
12542;PMS3003;6337;49.556;25.594;2023-06-14T13:31:01;6.67;5.60;
12542;PMS3003;6337;49.556;25.594;2023-06-14T13:33:28;6.33;5.03;
12542;PMS3003;6337;49.556;25.594;2023-06-14T13:35:56;6.23;5.00;
12542;PMS3003;6337;49.556;25.594;2023-06-14T13:38:23;7.53;5.77;
12542;PMS3003;6337;49.556;25.594;2023-06-14T13:40:52;8.37;5.53;
12542;PMS3003;6337;49.556;25.594;2023-06-14T13:43:20;5.60;5.13;
12542;PMS3003;6337;49.556;25.594;2023-06-14T13:45:48;5.60;5.10;
12542;PMS3003;6337;49.556;25.594;2023-06-14T13:48:15;7.40;5.40;
12542;PMS3003;6337;49.556;25.594;2023-06-14T13:50:43;5.13;4.70;
12542;PMS3003;6337;49.556;25.594;2023-06-14T13:53:11;5.13;4.73;
12542;PMS3003;6337;49.556;25.594;2023-06-14T13:55:39;8.43;6.10;
12542;PMS3003;6337;49.556;25.594;2023-06-14T13:58:08;10.17;4.93;
12542;PMS3003;6337;49.556;25.594;2023-06-14T14:00:35;8.47;6.00;
12542;PMS3003;6337;49.556;25.594;2023-06-14T14:03:05;6.43;4.63;
12542;PMS3003;6337;49.556;25.594;2023-06-14T14:05:34;12.10;5.47;
12542;PMS3003;6337;49.556;25.594;2023-06-14T14:08:01;16.10;7.23;
12542;PMS3003;6337;49.556;25.594;2023-06-14T14:10:29;8.07;5.00;
12542;PMS3003;6337;49.556;25.594;2023-06-14T14:12:56;12.73;4.87;
12542;PMS3003;6337;49.556;25.594;2023-06-14T14:15:26;11.03;5.20;
12542;PMS3003;6337;49.556;25.594;2023-06-14T14:17:55;14.57;4.87;
12542;PMS3003;6337;49.556;25.594;2023-06-14T14:20:22;6.20;5.57;
12542;PMS3003;6337;49.556;25.594;2023-06-14T14:22:50;7.63;5.47;
12542;PMS3003;6337;49.556;25.594;2023-06-14T14:25:17;7.60;5.27;
12542;PMS3003;6337;49.556;25.594;2023-06-14T14:27:45;7.63;5.10;
12542;PMS3003;6337;49.556;25.594;2023-06-14T14:30:13;4.93;4.43;
12542;PMS3003;6337;49.556;25.594;2023-06-14T14:32:44;7.10;4.40;
12542;PMS3003;6337;49.556;25.594;2023-06-14T14:35:13;5.53;5.00;
12542;PMS3003;6337;49.556;25.594;2023-06-14T14:37:42;11.10;5.90;
12542;PMS3003;6337;49.556;25.594;2023-06-14T14:40:10;6.50;4.67;
12542;PMS3003;6337;49.556;25.594;2023-06-14T14:42:38;8.43;5.30;
12542;PMS3003;6337;49.556;25.594;2023-06-14T14:45:07;5.33;4.47;
12542;PMS3003;6337;49.556;25.594;2023-06-14T14:47:36;7.10;5.30;
12542;PMS3003;6337;49.556;25.594;2023-06-14T14:50:06;6.53;5.33;
12542;PMS3003;6337;49.556;25.594;2023-06-14T14:52:37;9.60;4.50;
12542;PMS3003;6337;49.556;25.594;2023-06-14T14:55:05;8.40;4.60;
12542;PMS3003;6337;49.556;25.594;2023-06-14T14:57:34;9.70;4.40;
12542;PMS3003;6337;49.556;25.594;2023-06-14T15:00:03;6.50;4.07;
12542;PMS3003;6337;49.556;25.594;2023-06-14T15:02:35;5.43;4.83;
12542;PMS3003;6337;49.556;25.594;2023-06-14T15:05:05;4.73;4.33;
12542;PMS3003;6337;49.556;25.594;2023-06-14T15:07:32;6.23;4.60;
12542;PMS3003;6337;49.556;25.594;2023-06-14T15:10:00;5.60;5.00;
12542;PMS3003;6337;49.556;25.594;2023-06-14T15:12:28;4.93;4.43;
12542;PMS3003;6337;49.556;25.594;2023-06-14T15:14:55;4.77;3.73;
12542;PMS3003;6337;49.556;25.594;2023-06-14T15:17:22;9.57;5.30;
12542;PMS3003;6337;49.556;25.594;2023-06-14T15:19:51;5.07;4.50;
12542;PMS3003;6337;49.556;25.594;2023-06-14T15:22:36;4.73;4.33;
12542;PMS3003;6337;49.556;25.594;2023-06-14T15:25:04;9.13;5.50;
12542;PMS3003;6337;49.556;25.594;2023-06-14T15:27:33;10.37;4.67;
12542;PMS3003;6337;49.556;25.594;2023-06-14T15:30:01;6.30;3.80;